sensor_id;sensor_type;location;lat;lon;timestamp;pressure;altitude;pressure_sealevel;temperature;humidity
44934;BME280;30667;43.614;1.442;2023-05-14T00:01:29;100218.44;;;12.44;100.00
44934;BME280;30667;43.614;1.442;2023-05-14T00:03:55;100223.63;;;12.40;100.00
44934;BME280;30667;43.614;1.442;2023-05-14T00:06:20;100221.97;;;12.44;100.00
44934;BME280;30667;43.614;1.442;2023-05-14T00:08:45;100221.16;;;12.44;100.00
44934;BME280;30667;43.614;1.442;2023-05-14T00:11:11;100220.16;;;12.34;100.00
44934;BME280;30667;43.614;1.442;2023-05-14T00:13:36;100210.13;;;12.35;100.00
44934;BME280;30667;43.614;1.442;2023-05-14T00:16:02;100217.47;;;12.29;100.00
44934;BME280;30667;43.614;1.442;2023-05-14T00:18:27;100220.75;;;12.26;100.00
44934;BME280;30667;43.614;1.442;2023-05-14T00:20:53;100229.22;;;12.20;100.00
44934;BME280;30667;43.614;1.442;2023-05-14T00:23:22;100232.19;;;12.23;100.00
44934;BME280;30667;43.614;1.442;2023-05-14T00:25:47;100226.19;;;12.26;100.00
44934;BME280;30667;43.614;1.442;2023-05-14T00:28:13;100232.50;;;12.16;100.00
44934;BME280;30667;43.614;1.442;2023-05-14T00:30:38;100233.31;;;12.17;100.00
44934;BME280;30667;43.614;1.442;2023-05-14T00:33:04;100225.91;;;12.28;100.00
44934;BME280;30667;43.614;1.442;2023-05-14T00:35:29;100230.31;;;12.18;100.00
44934;BME280;30667;43.614;1.442;2023-05-14T00:37:55;100223.00;;;12.19;100.00
44934;BME280;30667;43.614;1.442;2023-05-14T00:40:25;100224.38;;;12.16;100.00
44934;BME280;30667;43.614;1.442;2023-05-14T00:42:51;100226.56;;;12.14;100.00
44934;BME280;30667;43.614;1.442;2023-05-14T00:45:16;100215.66;;;12.20;100.00
44934;BME280;30667;43.614;1.442;2023-05-14T00:47:42;100210.47;;;12.23;100.00
44934;BME280;30667;43.614;1.442;2023-05-14T00:50:10;100215.91;;;12.23;100.00
44934;BME280;30667;43.614;1.442;2023-05-14T00:52:37;100214.31;;;12.22;100.00
44934;BME280;30667;43.614;1.442;2023-05-14T00:55:04;100210.25;;;12.20;100.00
44934;BME280;30667;43.614;1.442;2023-05-14T00:57:31;100204.00;;;12.19;100.00
44934;BME280;30667;43.614;1.442;2023-05-14T00:59:57;100205.56;;;12.25;100.00
44934;BME280;30667;43.614;1.442;2023-05-14T01:02:23;100203.91;;;12.29;100.00
44934;BME280;30667;43.614;1.442;2023-05-14T01:04:49;100196.34;;;12.26;100.00
44934;BME280;30667;43.614;1.442;2023-05-14T01:07:46;100192.00;;;12.25;100.00
44934;BME280;30667;43.614;1.442;2023-05-14T01:10:19;100191.78;;;12.22;100.00
44934;BME280;30667;43.614;1.442;2023-05-14T01:13:09;100181.16;;;12.25;100.00
44934;BME280;30667;43.614;1.442;2023-05-14T01:15:38;100183.13;;;12.20;100.00
44934;BME280;30667;43.614;1.442;2023-05-14T01:18:07;100181.47;;;12.18;100.00
44934;BME280;30667;43.614;1.442;2023-05-14T01:20:34;100182.03;;;12.21;100.00
44934;BME280;30667;43.614;1.442;2023-05-14T01:23:00;100174.19;;;12.19;100.00
44934;BME280;30667;43.614;1.442;2023-05-14T01:25:25;100175.25;;;12.18;100.00
44934;BME280;30667;43.614;1.442;2023-05-14T01:28:14;100175.25;;;12.18;100.00
44934;BME280;30667;43.614;1.442;2023-05-14T01:30:48;100168.75;;;12.19;100.00
44934;BME280;30667;43.614;1.442;2023-05-14T01:33:17;100166.31;;;12.17;100.00
44934;BME280;30667;43.614;1.442;2023-05-14T01:35:44;100169.28;;;12.21;100.00
44934;BME280;30667;43.614;1.442;2023-05-14T01:38:11;100161.41;;;12.20;100.00
44934;BME280;30667;43.614;1.442;2023-05-14T01:40:38;100156.44;;;12.27;100.00
44934;BME280;30667;43.614;1.442;2023-05-14T01:43:04;100156.28;;;12.18;100.00
44934;BME280;30667;43.614;1.442;2023-05-14T01:45:30;100146.78;;;12.21;100.00
44934;BME280;30667;43.614;1.442;2023-05-14T01:47:56;100160.63;;;12.19;100.00
44934;BME280;30667;43.614;1.442;2023-05-14T01:50:21;100157.34;;;12.17;100.00
44934;BME280;30667;43.614;1.442;2023-05-14T01:52:47;100143.78;;;12.17;100.00
44934;BME280;30667;43.614;1.442;2023-05-14T01:55:12;100139.75;;;12.14;100.00
44934;BME280;30667;43.614;1.442;2023-05-14T01:57:38;100142.72;;;12.18;100.00
44934;BME280;30667;43.614;1.442;2023-05-14T02:00:04;100143.28;;;12.15;100.00
44934;BME280;30667;43.614;1.442;2023-05-14T02:02:30;100141.06;;;12.17;100.00
44934;BME280;30667;43.614;1.442;2023-05-14T02:04:55;100132.44;;;12.15;100.00
44934;BME280;30667;43.614;1.442;2023-05-14T02:07:20;100135.91;;;12.21;100.00
44934;BME280;30667;43.614;1.442;2023-05-14T02:09:46;100126.44;;;12.18;100.00
44934;BME280;30667;43.614;1.442;2023-05-14T02:12:11;100129.88;;;12.24;100.00
44934;BME280;30667;43.614;1.442;2023-05-14T02:14:37;100128.63;;;12.16;100.00
44934;BME280;30667;43.614;1.442;2023-05-14T02:17:02;100133.50;;;12.19;100.00
44934;BME280;30667;43.614;1.442;2023-05-14T02:19:28;100128.06;;;12.19;100.00
44934;BME280;30667;43.614;1.442;2023-05-14T02:21:54;100131.06;;;12.17;100.00
44934;BME280;30667;43.614;1.442;2023-05-14T02:24:19;100128.06;;;12.19;100.00
44934;BME280;30667;43.614;1.442;2023-05-14T02:26:44;100134.56;;;12.18;100.00
44934;BME280;30667;43.614;1.442;2023-05-14T02:29:10;100141.34;;;12.21;100.00
44934;BME280;30667;43.614;1.442;2023-05-14T02:31:35;100139.72;;;12.20;100.00
44934;BME280;30667;43.614;1.442;2023-05-14T02:34:02;100134.50;;;12.23;100.00
44934;BME280;30667;43.614;1.442;2023-05-14T02:36:28;100141.34;;;12.21;100.00
44934;BME280;30667;43.614;1.442;2023-05-14T02:38:53;100140.78;;;12.18;100.00
44934;BME280;30667;43.614;1.442;2023-05-14T02:41:18;100144.06;;;12.21;100.00
44934;BME280;30667;43.614;1.442;2023-05-14T02:43:44;100140.50;;;12.20;100.00
44934;BME280;30667;43.614;1.442;2023-05-14T02:46:10;100137.78;;;12.20;100.00
44934;BME280;30667;43.614;1.442;2023-05-14T02:48:35;100135.09;;;12.20;100.00
44934;BME280;30667;43.614;1.442;2023-05-14T02:51:01;100131.06;;;12.17;100.00
44934;BME280;30667;43.614;1.442;2023-05-14T02:53:26;100138.09;;;12.18;100.00
44934;BME280;30667;43.614;1.442;2023-05-14T02:55:52;100124.00;;;12.16;100.00
44934;BME280;30667;43.614;1.442;2023-05-14T02:58:17;100129.16;;;12.18;100.00
44934;BME280;30667;43.614;1.442;2023-05-14T03:00:43;100124.28;;;12.15;100.00
44934;BME280;30667;43.614;1.442;2023-05-14T03:03:09;100124.28;;;12.15;100.00
44934;BME280;30667;43.614;1.442;2023-05-14T03:05:34;100120.00;;;12.09;100.00
44934;BME280;30667;43.614;1.442;2023-05-14T03:07:59;100117.00;;;12.10;100.00
44934;BME280;30667;43.614;1.442;2023-05-14T03:10:25;100115.88;;;12.16;100.00
44934;BME280;30667;43.614;1.442;2023-05-14T03:12:50;100116.44;;;12.13;100.00
44934;BME280;30667;43.614;1.442;2023-05-14T03:15:16;100111.28;;;12.12;100.00
44934;BME280;30667;43.614;1.442;2023-05-14T03:17:41;100114.53;;;12.14;100.00
44934;BME280;30667;43.614;1.442;2023-05-14T03:20:07;100116.22;;;12.10;100.00
44934;BME280;30667;43.614;1.442;2023-05-14T03:22:32;100111.88;;;12.09;100.00
44934;BME280;30667;43.614;1.442;2023-05-14T03:24:58;100106.44;;;12.09;100.00
44934;BME280;30667;43.614;1.442;2023-05-14T03:27:23;100112.97;;;12.08;100.00
44934;BME280;30667;43.614;1.442;2023-05-14T03:29:49;100104.59;;;12.04;100.00
44934;BME280;30667;43.614;1.442;2023-05-14T03:32:14;100103.84;;;11.98;100.00
44934;BME280;30667;43.614;1.442;2023-05-14T03:34:40;100106.78;;;12.02;100.00
44934;BME280;30667;43.614;1.442;2023-05-14T03:37:05;100104.91;;;11.97;100.00
44934;BME280;30667;43.614;1.442;2023-05-14T03:39:31;100105.75;;;11.93;100.00
44934;BME280;30667;43.614;1.442;2023-05-14T03:41:56;100104.69;;;11.94;100.00
44934;BME280;30667;43.614;1.442;2023-05-14T03:44:23;100106.88;;;11.92;100.00
44934;BME280;30667;43.614;1.442;2023-05-14T03:46:49;100102.25;;;11.92;100.00
44934;BME280;30667;43.614;1.442;2023-05-14T03:49:14;100105.22;;;11.91;100.00
44934;BME280;30667;43.614;1.442;2023-05-14T03:51:40;100101.16;;;11.88;100.00
44934;BME280;30667;43.614;1.442;2023-05-14T03:54:05;100101.44;;;11.87;100.00
44934;BME280;30667;43.614;1.442;2023-05-14T03:56:31;100112.28;;;11.87;100.00
44934;BME280;30667;43.614;1.442;2023-05-14T03:58:56;100103.88;;;11.88;100.00
44934;BME280;30667;43.614;1.442;2023-05-14T04:01:21;100112.00;;;11.88;100.00
44934;BME280;30667;43.614;1.442;2023-05-14T04:03:47;100107.97;;;11.86;100.00
44934;BME280;30667;43.614;1.442;2023-05-14T04:06:12;100109.59;;;11.92;100.00
44934;BME280;30667;43.614;1.442;2023-05-14T04:08:38;100120.94;;;11.94;100.00
44934;BME280;30667;43.614;1.442;2023-05-14T04:11:03;100121.22;;;11.92;100.00
44934;BME280;30667;43.614;1.442;2023-05-14T04:13:29;100120.13;;;11.93;100.00
44934;BME280;30667;43.614;1.442;2023-05-14T04:15:54;100124.97;;;11.96;100.00
44934;BME280;30667;43.614;1.442;2023-05-14T04:18:19;100122.28;;;11.96;100.00
44934;BME280;30667;43.614;1.442;2023-05-14T04:20:45;100117.69;;;11.97;100.00
44934;BME280;30667;43.614;1.442;2023-05-14T04:23:11;100125.81;;;11.97;100.00
44934;BME280;30667;43.614;1.442;2023-05-14T04:25:36;100121.69;;;11.99;100.00
44934;BME280;30667;43.614;1.442;2023-05-14T04:28:02;100130.38;;;12.02;100.00
44934;BME280;30667;43.614;1.442;2023-05-14T04:30:27;100132.84;;;11.98;100.00
44934;BME280;30667;43.614;1.442;2023-05-14T04:32:52;100129.59;;;11.96;100.00
44934;BME280;30667;43.614;1.442;2023-05-14T04:35:19;100126.91;;;11.96;100.00
44934;BME280;30667;43.614;1.442;2023-05-14T04:37:44;100127.19;;;11.94;100.00
44934;BME280;30667;43.614;1.442;2023-05-14T04:40:10;100127.41;;;11.98;100.00
44934;BME280;30667;43.614;1.442;2023-05-14T04:42:36;100127.19;;;11.94;100.00
44934;BME280;30667;43.614;1.442;2023-05-14T04:45:02;100137.47;;;11.97;100.00
44934;BME280;30667;43.614;1.442;2023-05-14T04:47:29;100131.22;;;11.97;100.00
44934;BME280;30667;43.614;1.442;2023-05-14T04:49:55;100135.03;;;11.96;100.00
44934;BME280;30667;43.614;1.442;2023-05-14T04:52:20;100135.81;;;11.96;100.00
44934;BME280;30667;43.614;1.442;2023-05-14T04:54:45;100132.25;;;12.01;100.00
44934;BME280;30667;43.614;1.442;2023-05-14T04:57:11;100137.41;;;12.03;100.00
44934;BME280;30667;43.614;1.442;2023-05-14T04:59:36;100149.59;;;12.05;100.00
44934;BME280;30667;43.614;1.442;2023-05-14T05:02:02;100137.97;;;12.05;100.00
44934;BME280;30667;43.614;1.442;2023-05-14T05:04:27;100140.94;;;12.03;100.00
44934;BME280;30667;43.614;1.442;2023-05-14T05:06:53;100140.09;;;12.08;100.00
44934;BME280;30667;43.614;1.442;2023-05-14T05:09:18;100147.91;;;12.09;100.00
44934;BME280;30667;43.614;1.442;2023-05-14T05:11:43;100147.63;;;12.11;100.00
44934;BME280;30667;43.614;1.442;2023-05-14T05:14:09;100140.63;;;12.10;100.00
44934;BME280;30667;43.614;1.442;2023-05-14T05:16:34;100151.19;;;12.11;100.00
44934;BME280;30667;43.614;1.442;2023-05-14T05:19:00;100150.13;;;12.07;100.00
44934;BME280;30667;43.614;1.442;2023-05-14T05:21:25;100160.97;;;12.07;100.00
44934;BME280;30667;43.614;1.442;2023-05-14T05:23:51;100159.88;;;12.08;100.00
44934;BME280;30667;43.614;1.442;2023-05-14T05:26:16;100163.91;;;12.11;100.00
44934;BME280;30667;43.614;1.442;2023-05-14T05:28:41;100167.44;;;12.11;100.00
44934;BME280;30667;43.614;1.442;2023-05-14T05:31:07;100163.34;;;12.14;100.00
44934;BME280;30667;43.614;1.442;2023-05-14T05:33:33;100162.81;;;12.12;100.00
44934;BME280;30667;43.614;1.442;2023-05-14T05:35:59;100169.09;;;12.07;100.00
44934;BME280;30667;43.614;1.442;2023-05-14T05:38:24;100167.44;;;12.11;100.00
44934;BME280;30667;43.614;1.442;2023-05-14T05:40:50;100178.03;;;12.13;100.00
44934;BME280;30667;43.614;1.442;2023-05-14T05:43:15;100175.88;;;12.10;100.00
44934;BME280;30667;43.614;1.442;2023-05-14T05:45:41;100176.69;;;12.10;100.00
44934;BME280;30667;43.614;1.442;2023-05-14T05:48:06;100188.59;;;12.14;100.00
44934;BME280;30667;43.614;1.442;2023-05-14T05:50:31;100187.75;;;12.14;100.00
44934;BME280;30667;43.614;1.442;2023-05-14T05:52:57;100182.88;;;12.16;100.00
44934;BME280;30667;43.614;1.442;2023-05-14T05:55:24;100186.97;;;12.13;100.00
44934;BME280;30667;43.614;1.442;2023-05-14T05:57:49;100180.44;;;12.44;100.00
44934;BME280;30667;43.614;1.442;2023-05-14T06:00:15;100178.06;;;12.37;100.00
44934;BME280;30667;43.614;1.442;2023-05-14T06:02:41;100184.94;;;12.29;100.00
44934;BME280;30667;43.614;1.442;2023-05-14T06:05:08;100180.06;;;12.26;100.00
44934;BME280;30667;43.614;1.442;2023-05-14T06:07:34;100184.97;;;12.24;100.00
44934;BME280;30667;43.614;1.442;2023-05-14T06:09:59;100186.06;;;12.23;100.00
44934;BME280;30667;43.614;1.442;2023-05-14T06:12:25;100189.56;;;12.29;100.00
44934;BME280;30667;43.614;1.442;2023-05-14T06:14:50;100186.06;;;12.23;100.00
44934;BME280;30667;43.614;1.442;2023-05-14T06:17:16;100184.41;;;12.27;100.00
44934;BME280;30667;43.614;1.442;2023-05-14T06:19:42;100183.84;;;12.30;100.00
44934;BME280;30667;43.614;1.442;2023-05-14T06:22:07;100182.78;;;12.26;100.00
44934;BME280;30667;43.614;1.442;2023-05-14T06:24:32;100181.41;;;12.29;100.00
44934;BME280;30667;43.614;1.442;2023-05-14T06:26:58;100181.13;;;12.30;100.00
44934;BME280;30667;43.614;1.442;2023-05-14T06:29:24;100183.00;;;12.35;100.00
44934;BME280;30667;43.614;1.442;2023-05-14T06:31:49;100180.00;;;12.37;100.00
44934;BME280;30667;43.614;1.442;2023-05-14T06:34:15;100178.38;;;12.35;100.00
44934;BME280;30667;43.614;1.442;2023-05-14T06:36:40;100176.16;;;12.38;100.00
44934;BME280;30667;43.614;1.442;2023-05-14T06:39:05;100180.22;;;12.40;100.00
44934;BME280;30667;43.614;1.442;2023-05-14T06:41:31;100185.88;;;12.44;100.00
44934;BME280;30667;43.614;1.442;2023-05-14T06:43:56;100184.50;;;12.46;100.00
44934;BME280;30667;43.614;1.442;2023-05-14T06:46:22;100186.38;;;12.51;100.00
44934;BME280;30667;43.614;1.442;2023-05-14T06:48:47;100189.31;;;12.54;100.00
44934;BME280;30667;43.614;1.442;2023-05-14T06:51:13;100181.41;;;12.58;100.00
44934;BME280;30667;43.614;1.442;2023-05-14T06:53:39;100189.78;;;12.62;100.00
44934;BME280;30667;43.614;1.442;2023-05-14T06:56:05;100178.63;;;12.63;100.00
44934;BME280;30667;43.614;1.442;2023-05-14T06:58:30;100179.47;;;12.64;100.00
44934;BME280;30667;43.614;1.442;2023-05-14T07:00:57;100176.75;;;12.64;100.00
44934;BME280;30667;43.614;1.442;2023-05-14T07:03:22;100182.69;;;12.66;100.00
44934;BME280;30667;43.614;1.442;2023-05-14T07:05:48;100186.19;;;12.66;100.00
44934;BME280;30667;43.614;1.442;2023-05-14T07:08:14;100183.38;;;12.77;100.00
44934;BME280;30667;43.614;1.442;2023-05-14T07:10:39;100175.28;;;12.71;100.00
44934;BME280;30667;43.614;1.442;2023-05-14T07:13:05;100176.41;;;12.70;100.00
44934;BME280;30667;43.614;1.442;2023-05-14T07:15:30;100174.13;;;12.78;100.00
44934;BME280;30667;43.614;1.442;2023-05-14T07:17:56;100176.56;;;12.79;100.00
44934;BME280;30667;43.614;1.442;2023-05-14T07:20:21;100176.97;;;12.92;100.00
44934;BME280;30667;43.614;1.442;2023-05-14T07:22:48;100173.38;;;12.96;100.00
44934;BME280;30667;43.614;1.442;2023-05-14T07:25:14;100171.66;;;13.05;100.00
44934;BME280;30667;43.614;1.442;2023-05-14T07:27:39;100175.25;;;13.01;100.00
44934;BME280;30667;43.614;1.442;2023-05-14T07:30:06;100175.66;;;13.13;100.00
44934;BME280;30667;43.614;1.442;2023-05-14T07:32:32;100174.81;;;13.13;100.00
44934;BME280;30667;43.614;1.442;2023-05-14T07:34:57;100170.66;;;13.20;100.00
44934;BME280;30667;43.614;1.442;2023-05-14T07:37:22;100173.66;;;13.19;100.00
44934;BME280;30667;43.614;1.442;2023-05-14T07:39:53;100173.06;;;13.22;100.00
44934;BME280;30667;43.614;1.442;2023-05-14T07:42:18;100174.91;;;13.26;100.00
44934;BME280;30667;43.614;1.442;2023-05-14T07:44:43;100174.91;;;13.26;100.00
44934;BME280;30667;43.614;1.442;2023-05-14T07:47:10;100186.25;;;13.34;100.00
44934;BME280;30667;43.614;1.442;2023-05-14T07:49:35;100174.63;;;13.28;100.00
44934;BME280;30667;43.614;1.442;2023-05-14T07:52:00;100186.50;;;13.32;100.00
44934;BME280;30667;43.614;1.442;2023-05-14T07:54:26;100181.00;;;13.42;100.00
44934;BME280;30667;43.614;1.442;2023-05-14T07:56:51;100186.94;;;13.44;100.00
44934;BME280;30667;43.614;1.442;2023-05-14T07:59:17;100183.22;;;13.40;100.00
44934;BME280;30667;43.614;1.442;2023-05-14T08:01:42;100188.63;;;13.40;100.00
44934;BME280;30667;43.614;1.442;2023-05-14T08:04:08;100187.59;;;13.36;100.00
44934;BME280;30667;43.614;1.442;2023-05-14T08:06:36;100185.34;;;13.43;100.00
44934;BME280;30667;43.614;1.442;2023-05-14T08:09:02;100185.47;;;13.52;100.00
44934;BME280;30667;43.614;1.442;2023-05-14T08:11:29;100178.59;;;13.60;100.00
44934;BME280;30667;43.614;1.442;2023-05-14T08:13:55;100183.81;;;13.56;100.00
44934;BME280;30667;43.614;1.442;2023-05-14T08:16:21;100185.94;;;13.59;100.00
44934;BME280;30667;43.614;1.442;2023-05-14T08:18:46;100183.25;;;13.54;100.00
44934;BME280;30667;43.614;1.442;2023-05-14T08:21:12;100187.97;;;13.49;100.00
44934;BME280;30667;43.614;1.442;2023-05-14T08:23:37;100179.81;;;13.49;100.00
44934;BME280;30667;43.614;1.442;2023-05-14T08:26:03;100188.28;;;13.47;100.00
44934;BME280;30667;43.614;1.442;2023-05-14T08:28:28;100192.59;;;13.48;100.00
44934;BME280;30667;43.614;1.442;2023-05-14T08:30:53;100190.78;;;13.43;100.00
44934;BME280;30667;43.614;1.442;2023-05-14T08:33:19;100196.13;;;13.49;100.00
44934;BME280;30667;43.614;1.442;2023-05-14T08:35:44;100192.75;;;13.57;100.00
44934;BME280;30667;43.614;1.442;2023-05-14T08:38:09;100197.41;;;13.56;100.00
44934;BME280;30667;43.614;1.442;2023-05-14T08:40:35;100196.28;;;13.57;100.00
44934;BME280;30667;43.614;1.442;2023-05-14T08:43:00;100201.41;;;13.59;100.00
44934;BME280;30667;43.614;1.442;2023-05-14T08:45:29;100199.00;;;13.57;100.00
44934;BME280;30667;43.614;1.442;2023-05-14T08:47:58;100198.88;;;13.68;100.00
44934;BME280;30667;43.614;1.442;2023-05-14T08:50:24;100200.53;;;13.63;100.00
44934;BME280;30667;43.614;1.442;2023-05-14T08:52:51;100205.47;;;13.61;100.00
44934;BME280;30667;43.614;1.442;2023-05-14T08:55:17;100209.06;;;13.76;100.00
44934;BME280;30667;43.614;1.442;2023-05-14T08:57:44;100212.97;;;13.70;100.00
44934;BME280;30667;43.614;1.442;2023-05-14T09:00:11;100215.91;;;13.73;100.00
44934;BME280;30667;43.614;1.442;2023-05-14T09:02:38;100208.69;;;13.83;100.00
44934;BME280;30667;43.614;1.442;2023-05-14T09:05:04;100220.63;;;13.87;100.00
44934;BME280;30667;43.614;1.442;2023-05-14T09:07:32;100217.53;;;13.74;100.00
44934;BME280;30667;43.614;1.442;2023-05-14T09:09:57;100215.81;;;13.78;100.00
44934;BME280;30667;43.614;1.442;2023-05-14T09:12:23;100212.75;;;13.85;100.00
44934;BME280;30667;43.614;1.442;2023-05-14T09:14:49;100214.16;;;13.83;100.00
44934;BME280;30667;43.614;1.442;2023-05-14T09:17:15;100216.66;;;13.79;100.00
44934;BME280;30667;43.614;1.442;2023-05-14T09:19:42;100215.41;;;13.90;100.00
44934;BME280;30667;43.614;1.442;2023-05-14T09:22:12;100205.16;;;14.01;100.00
44934;BME280;30667;43.614;1.442;2023-05-14T09:24:38;100204.63;;;13.99;100.00
44934;BME280;30667;43.614;1.442;2023-05-14T09:27:05;100205.88;;;14.07;100.00
44934;BME280;30667;43.614;1.442;2023-05-14T09:29:31;100197.88;;;14.15;100.00
44934;BME280;30667;43.614;1.442;2023-05-14T09:31:58;100204.97;;;14.30;100.00
44934;BME280;30667;43.614;1.442;2023-05-14T09:34:26;100208.78;;;14.29;100.00
44934;BME280;30667;43.614;1.442;2023-05-14T09:36:56;100200.38;;;14.45;100.00
44934;BME280;30667;43.614;1.442;2023-05-14T09:39:23;100207.13;;;14.47;100.00
44934;BME280;30667;43.614;1.442;2023-05-14T09:41:49;100207.44;;;14.46;100.00
44934;BME280;30667;43.614;1.442;2023-05-14T09:44:16;100213.81;;;14.55;100.00
44934;BME280;30667;43.614;1.442;2023-05-14T09:46:41;100202.56;;;14.76;100.00
44934;BME280;30667;43.614;1.442;2023-05-14T09:49:07;100209.63;;;14.77;100.00
44934;BME280;30667;43.614;1.442;2023-05-14T09:51:32;100215.88;;;14.77;100.00
44934;BME280;30667;43.614;1.442;2023-05-14T09:53:57;100220.03;;;14.75;100.00
44934;BME280;30667;43.614;1.442;2023-05-14T09:56:23;100208.13;;;14.84;100.00
44934;BME280;30667;43.614;1.442;2023-05-14T09:58:48;100216.19;;;14.89;100.00
44934;BME280;30667;43.614;1.442;2023-05-14T10:01:16;100218.53;;;14.82;100.00
44934;BME280;30667;43.614;1.442;2023-05-14T10:03:43;100221.31;;;14.77;100.00
44934;BME280;30667;43.614;1.442;2023-05-14T10:06:10;100222.06;;;14.83;100.00
44934;BME280;30667;43.614;1.442;2023-05-14T10:08:40;100227.00;;;14.81;100.00
44934;BME280;30667;43.614;1.442;2023-05-14T10:11:12;100216.31;;;14.98;100.00
44934;BME280;30667;43.614;1.442;2023-05-14T10:13:39;100221.78;;;14.98;100.00
44934;BME280;30667;43.614;1.442;2023-05-14T10:16:15;100216.72;;;15.05;100.00
44934;BME280;30667;43.614;1.442;2023-05-14T10:18:45;100212.28;;;15.10;100.00
44934;BME280;30667;43.614;1.442;2023-05-14T10:21:13;100210.34;;;15.10;100.00
44934;BME280;30667;43.614;1.442;2023-05-14T10:23:40;100209.34;;;15.06;100.00
44934;BME280;30667;43.614;1.442;2023-05-14T10:26:07;100207.94;;;15.08;100.00
44934;BME280;30667;43.614;1.442;2023-05-14T10:28:33;100210.78;;;15.17;100.00
44934;BME280;30667;43.614;1.442;2023-05-14T10:30:59;100204.78;;;15.15;100.00
44934;BME280;30667;43.614;1.442;2023-05-14T10:33:25;100206.81;;;15.23;100.00
44934;BME280;30667;43.614;1.442;2023-05-14T10:36:00;100212.25;;;15.37;100.00
44934;BME280;30667;43.614;1.442;2023-05-14T10:38:29;100209.22;;;15.39;100.00
44934;BME280;30667;43.614;1.442;2023-05-14T10:41:14;100211.47;;;15.23;100.00
44934;BME280;30667;43.614;1.442;2023-05-14T10:43:42;100213.34;;;15.36;100.00
44934;BME280;30667;43.614;1.442;2023-05-14T10:46:09;100221.63;;;15.45;100.00
44934;BME280;30667;43.614;1.442;2023-05-14T10:48:36;100207.06;;;15.64;100.00
44934;BME280;30667;43.614;1.442;2023-05-14T10:51:06;100202.16;;;15.74;100.00
44934;BME280;30667;43.614;1.442;2023-05-14T10:53:37;100205.81;;;15.70;100.00
44934;BME280;30667;43.614;1.442;2023-05-14T10:56:07;100200.88;;;15.72;100.00
44934;BME280;30667;43.614;1.442;2023-05-14T10:58:41;100199.69;;;15.64;100.00
44934;BME280;30667;43.614;1.442;2023-05-14T11:01:07;100196.53;;;15.71;100.00
44934;BME280;30667;43.614;1.442;2023-05-14T11:03:41;100202.78;;;15.71;100.00
44934;BME280;30667;43.614;1.442;2023-05-14T11:06:08;100204.72;;;15.85;100.00
44934;BME280;30667;43.614;1.442;2023-05-14T11:08:35;100204.59;;;15.76;100.00
44934;BME280;30667;43.614;1.442;2023-05-14T11:11:01;100195.22;;;15.82;100.00
44934;BME280;30667;43.614;1.442;2023-05-14T11:13:26;100202.28;;;15.83;100.00
44934;BME280;30667;43.614;1.442;2023-05-14T11:15:52;100200.53;;;15.87;100.00
44934;BME280;30667;43.614;1.442;2023-05-14T11:18:31;100194.16;;;15.92;100.00
44934;BME280;30667;43.614;1.442;2023-05-14T11:20:59;100195.97;;;15.96;100.00
44934;BME280;30667;43.614;1.442;2023-05-14T11:23:25;100195.53;;;16.03;100.00
44934;BME280;30667;43.614;1.442;2023-05-14T11:25:52;100188.53;;;16.11;100.00
44934;BME280;30667;43.614;1.442;2023-05-14T11:28:27;100185.53;;;15.98;100.00
44934;BME280;30667;43.614;1.442;2023-05-14T11:30:53;100183.03;;;16.02;100.00
44934;BME280;30667;43.614;1.442;2023-05-14T11:33:19;100180.50;;;16.14;100.00
44934;BME280;30667;43.614;1.442;2023-05-14T11:35:48;100176.53;;;16.21;100.00
44934;BME280;30667;43.614;1.442;2023-05-14T11:38:17;100183.94;;;16.20;100.00
44934;BME280;30667;43.614;1.442;2023-05-14T11:40:57;100181.66;;;16.13;100.00
44934;BME280;30667;43.614;1.442;2023-05-14T11:43:24;100171.09;;;15.98;100.00
44934;BME280;30667;43.614;1.442;2023-05-14T11:45:51;100167.63;;;15.84;100.00
44934;BME280;30667;43.614;1.442;2023-05-14T11:48:20;100171.91;;;15.98;100.00
44934;BME280;30667;43.614;1.442;2023-05-14T11:50:47;100166.75;;;15.97;100.00
44934;BME280;30667;43.614;1.442;2023-05-14T11:53:23;100165.47;;;15.94;100.00
44934;BME280;30667;43.614;1.442;2023-05-14T11:55:49;100174.94;;;15.97;100.00
44934;BME280;30667;43.614;1.442;2023-05-14T11:58:14;100168.97;;;15.95;100.00
44934;BME280;30667;43.614;1.442;2023-05-14T12:00:48;100156.03;;;16.01;100.00
44934;BME280;30667;43.614;1.442;2023-05-14T12:03:14;100157.88;;;16.14;100.00
44934;BME280;30667;43.614;1.442;2023-05-14T12:05:39;100151.56;;;16.05;100.00
44934;BME280;30667;43.614;1.442;2023-05-14T12:08:21;100151.81;;;15.94;100.00
44934;BME280;30667;43.614;1.442;2023-05-14T12:10:47;100147.81;;;16.23;100.00
44934;BME280;30667;43.614;1.442;2023-05-14T12:13:14;100144.25;;;16.45;100.00
44934;BME280;30667;43.614;1.442;2023-05-14T12:15:44;100145.22;;;16.49;100.00
44934;BME280;30667;43.614;1.442;2023-05-14T12:18:09;100138.09;;;16.40;100.00
44934;BME280;30667;43.614;1.442;2023-05-14T12:20:35;100140.03;;;16.39;100.00
44934;BME280;30667;43.614;1.442;2023-05-14T12:23:00;100154.16;;;16.32;100.00
44934;BME280;30667;43.614;1.442;2023-05-14T12:25:25;100138.53;;;16.24;100.00
44934;BME280;30667;43.614;1.442;2023-05-14T12:27:51;100140.28;;;16.29;100.00
44934;BME280;30667;43.614;1.442;2023-05-14T12:30:16;100145.97;;;16.32;100.00
44934;BME280;30667;43.614;1.442;2023-05-14T12:32:42;100129.16;;;16.16;100.00
44934;BME280;30667;43.614;1.442;2023-05-14T12:35:07;100126.75;;;16.15;100.00
44934;BME280;30667;43.614;1.442;2023-05-14T12:37:33;100127.84;;;16.14;100.00